sensor_id;sensor_type;location;lat;lon;timestamp;temperature;humidity
47168;DHT22;32931;47.778;17.806;2024-03-06T00:01:19;7.60;99.90
47168;DHT22;32931;47.778;17.806;2024-03-06T00:03:46;7.60;99.90
47168;DHT22;32931;47.778;17.806;2024-03-06T00:06:12;7.60;99.90
47168;DHT22;32931;47.778;17.806;2024-03-06T00:08:38;7.60;99.90
47168;DHT22;32931;47.778;17.806;2024-03-06T00:11:04;7.60;99.90
47168;DHT22;32931;47.778;17.806;2024-03-06T00:13:30;7.60;99.90
47168;DHT22;32931;47.778;17.806;2024-03-06T00:15:56;7.60;99.90
47168;DHT22;32931;47.778;17.806;2024-03-06T00:18:23;7.60;99.90
47168;DHT22;32931;47.778;17.806;2024-03-06T00:20:49;7.60;99.90
47168;DHT22;32931;47.778;17.806;2024-03-06T00:23:15;7.60;99.90
47168;DHT22;32931;47.778;17.806;2024-03-06T00:25:41;7.60;99.90
47168;DHT22;32931;47.778;17.806;2024-03-06T00:28:07;7.60;99.90
47168;DHT22;32931;47.778;17.806;2024-03-06T00:30:33;7.50;99.90
47168;DHT22;32931;47.778;17.806;2024-03-06T00:32:59;7.50;99.90
47168;DHT22;32931;47.778;17.806;2024-03-06T00:35:26;7.50;99.90
47168;DHT22;32931;47.778;17.806;2024-03-06T00:37:52;7.50;99.90
47168;DHT22;32931;47.778;17.806;2024-03-06T00:40:19;7.60;99.90
47168;DHT22;32931;47.778;17.806;2024-03-06T00:42:45;7.50;99.90
47168;DHT22;32931;47.778;17.806;2024-03-06T00:45:11;7.40;99.90
47168;DHT22;32931;47.778;17.806;2024-03-06T00:47:37;7.40;99.90
47168;DHT22;32931;47.778;17.806;2024-03-06T00:50:04;7.30;99.90
47168;DHT22;32931;47.778;17.806;2024-03-06T00:52:33;7.30;99.90
47168;DHT22;32931;47.778;17.806;2024-03-06T00:54:59;7.30;99.90
47168;DHT22;32931;47.778;17.806;2024-03-06T00:57:26;7.30;99.90
47168;DHT22;32931;47.778;17.806;2024-03-06T00:59:52;7.40;99.90
47168;DHT22;32931;47.778;17.806;2024-03-06T01:02:18;7.30;99.90
47168;DHT22;32931;47.778;17.806;2024-03-06T01:04:44;7.40;99.90
47168;DHT22;32931;47.778;17.806;2024-03-06T01:07:10;7.30;99.90
47168;DHT22;32931;47.778;17.806;2024-03-06T01:09:36;7.30;99.90
47168;DHT22;32931;47.778;17.806;2024-03-06T01:12:02;7.30;99.90
47168;DHT22;32931;47.778;17.806;2024-03-06T01:14:28;7.30;99.90
47168;DHT22;32931;47.778;17.806;2024-03-06T01:16:55;7.30;99.90
47168;DHT22;32931;47.778;17.806;2024-03-06T01:19:21;7.30;99.90
47168;DHT22;32931;47.778;17.806;2024-03-06T01:21:47;7.40;99.90
47168;DHT22;32931;47.778;17.806;2024-03-06T01:24:14;7.40;99.90
47168;DHT22;32931;47.778;17.806;2024-03-06T01:26:40;7.40;99.90
47168;DHT22;32931;47.778;17.806;2024-03-06T01:29:06;7.40;99.90
47168;DHT22;32931;47.778;17.806;2024-03-06T01:31:32;7.30;99.90
47168;DHT22;32931;47.778;17.806;2024-03-06T01:33:59;7.40;99.90
47168;DHT22;32931;47.778;17.806;2024-03-06T01:36:25;7.50;99.90
47168;DHT22;32931;47.778;17.806;2024-03-06T01:38:51;7.50;99.90
47168;DHT22;32931;47.778;17.806;2024-03-06T01:41:17;7.40;99.90
47168;DHT22;32931;47.778;17.806;2024-03-06T01:43:44;7.30;99.90
47168;DHT22;32931;47.778;17.806;2024-03-06T01:46:10;7.30;99.90
47168;DHT22;32931;47.778;17.806;2024-03-06T01:48:36;7.20;99.90
47168;DHT22;32931;47.778;17.806;2024-03-06T01:51:02;7.20;99.90
47168;DHT22;32931;47.778;17.806;2024-03-06T01:53:32;7.20;99.90
47168;DHT22;32931;47.778;17.806;2024-03-06T01:55:59;7.10;99.90
47168;DHT22;32931;47.778;17.806;2024-03-06T01:58:26;7.10;99.90
47168;DHT22;32931;47.778;17.806;2024-03-06T02:00:52;7.10;99.90
47168;DHT22;32931;47.778;17.806;2024-03-06T02:03:19;7.20;99.90
47168;DHT22;32931;47.778;17.806;2024-03-06T02:05:45;7.10;99.90
47168;DHT22;32931;47.778;17.806;2024-03-06T02:08:12;7.10;99.90
47168;DHT22;32931;47.778;17.806;2024-03-06T02:10:38;7.10;99.90
47168;DHT22;32931;47.778;17.806;2024-03-06T02:13:04;7.10;99.90
47168;DHT22;32931;47.778;17.806;2024-03-06T02:15:31;7.10;99.90
47168;DHT22;32931;47.778;17.806;2024-03-06T02:17:57;7.10;99.90
47168;DHT22;32931;47.778;17.806;2024-03-06T02:20:24;7.10;99.90
47168;DHT22;32931;47.778;17.806;2024-03-06T02:22:50;7.10;99.90
47168;DHT22;32931;47.778;17.806;2024-03-06T02:25:17;7.00;99.90
47168;DHT22;32931;47.778;17.806;2024-03-06T02:27:45;7.00;99.90
47168;DHT22;32931;47.778;17.806;2024-03-06T02:30:11;7.00;99.90
47168;DHT22;32931;47.778;17.806;2024-03-06T02:32:37;6.90;99.90
47168;DHT22;32931;47.778;17.806;2024-03-06T02:35:03;6.90;99.90
47168;DHT22;32931;47.778;17.806;2024-03-06T02:37:34;7.00;99.90
47168;DHT22;32931;47.778;17.806;2024-03-06T02:40:00;7.00;99.90
47168;DHT22;32931;47.778;17.806;2024-03-06T02:42:27;7.00;99.90
47168;DHT22;32931;47.778;17.806;2024-03-06T02:44:54;7.00;99.90
47168;DHT22;32931;47.778;17.806;2024-03-06T02:47:20;7.00;99.90
47168;DHT22;32931;47.778;17.806;2024-03-06T02:49:46;7.00;99.90
47168;DHT22;32931;47.778;17.806;2024-03-06T02:52:12;6.90;99.90
47168;DHT22;32931;47.778;17.806;2024-03-06T02:54:41;6.90;99.90
47168;DHT22;32931;47.778;17.806;2024-03-06T02:57:08;6.80;99.90
47168;DHT22;32931;47.778;17.806;2024-03-06T02:59:34;6.80;99.90
47168;DHT22;32931;47.778;17.806;2024-03-06T03:02:00;6.80;99.90
47168;DHT22;32931;47.778;17.806;2024-03-06T03:04:27;6.70;99.90
47168;DHT22;32931;47.778;17.806;2024-03-06T03:06:53;6.60;99.90
47168;DHT22;32931;47.778;17.806;2024-03-06T03:09:19;6.60;99.90
47168;DHT22;32931;47.778;17.806;2024-03-06T03:11:46;6.60;99.90
47168;DHT22;32931;47.778;17.806;2024-03-06T03:14:12;6.50;99.90
47168;DHT22;32931;47.778;17.806;2024-03-06T03:16:38;6.50;99.90
47168;DHT22;32931;47.778;17.806;2024-03-06T03:19:04;6.50;99.90
47168;DHT22;32931;47.778;17.806;2024-03-06T03:21:30;6.50;99.90
47168;DHT22;32931;47.778;17.806;2024-03-06T03:23:58;6.60;99.90
47168;DHT22;32931;47.778;17.806;2024-03-06T03:26:24;6.60;99.90
47168;DHT22;32931;47.778;17.806;2024-03-06T03:28:50;6.50;99.90
47168;DHT22;32931;47.778;17.806;2024-03-06T03:31:16;6.50;99.90
47168;DHT22;32931;47.778;17.806;2024-03-06T03:33:42;6.50;99.90
47168;DHT22;32931;47.778;17.806;2024-03-06T03:36:09;6.40;99.90
47168;DHT22;32931;47.778;17.806;2024-03-06T03:38:36;6.40;99.90
47168;DHT22;32931;47.778;17.806;2024-03-06T03:41:08;6.40;99.90
47168;DHT22;32931;47.778;17.806;2024-03-06T03:43:34;6.50;99.90
47168;DHT22;32931;47.778;17.806;2024-03-06T03:46:00;6.50;99.90
47168;DHT22;32931;47.778;17.806;2024-03-06T03:48:26;6.50;99.90
47168;DHT22;32931;47.778;17.806;2024-03-06T03:50:52;6.50;99.90
47168;DHT22;32931;47.778;17.806;2024-03-06T03:53:18;6.50;99.90
47168;DHT22;32931;47.778;17.806;2024-03-06T03:55:45;6.50;99.90
47168;DHT22;32931;47.778;17.806;2024-03-06T03:58:11;6.50;99.90
47168;DHT22;32931;47.778;17.806;2024-03-06T04:00:37;6.40;99.90
47168;DHT22;32931;47.778;17.806;2024-03-06T04:03:04;6.40;99.90
47168;DHT22;32931;47.778;17.806;2024-03-06T04:05:31;6.50;99.90
47168;DHT22;32931;47.778;17.806;2024-03-06T04:07:57;6.40;99.90
47168;DHT22;32931;47.778;17.806;2024-03-06T04:10:23;6.40;99.90
47168;DHT22;32931;47.778;17.806;2024-03-06T04:12:49;6.40;99.90
47168;DHT22;32931;47.778;17.806;2024-03-06T04:15:15;6.40;99.90
47168;DHT22;32931;47.778;17.806;2024-03-06T04:17:42;6.40;99.90
47168;DHT22;32931;47.778;17.806;2024-03-06T04:20:08;6.30;99.90
47168;DHT22;32931;47.778;17.806;2024-03-06T04:22:38;6.30;99.90
47168;DHT22;32931;47.778;17.806;2024-03-06T04:25:05;6.30;99.90
47168;DHT22;32931;47.778;17.806;2024-03-06T04:27:31;6.30;99.90
47168;DHT22;32931;47.778;17.806;2024-03-06T04:29:58;6.20;99.90
47168;DHT22;32931;47.778;17.806;2024-03-06T04:32:25;6.20;99.90
47168;DHT22;32931;47.778;17.806;2024-03-06T04:34:51;6.20;99.90
47168;DHT22;32931;47.778;17.806;2024-03-06T04:37:17;6.20;99.90
47168;DHT22;32931;47.778;17.806;2024-03-06T04:39:43;6.30;99.90
47168;DHT22;32931;47.778;17.806;2024-03-06T04:42:09;6.30;99.90
47168;DHT22;32931;47.778;17.806;2024-03-06T04:44:36;6.30;99.90
47168;DHT22;32931;47.778;17.806;2024-03-06T04:47:02;6.20;99.90
47168;DHT22;32931;47.778;17.806;2024-03-06T04:49:32;6.20;99.90
47168;DHT22;32931;47.778;17.806;2024-03-06T04:51:58;6.30;99.90
47168;DHT22;32931;47.778;17.806;2024-03-06T04:54:24;6.20;99.90
47168;DHT22;32931;47.778;17.806;2024-03-06T04:56:50;6.20;99.90
47168;DHT22;32931;47.778;17.806;2024-03-06T04:59:16;6.20;99.90
47168;DHT22;32931;47.778;17.806;2024-03-06T05:01:42;6.20;99.90
47168;DHT22;32931;47.778;17.806;2024-03-06T05:04:09;6.20;99.90
47168;DHT22;32931;47.778;17.806;2024-03-06T05:06:37;6.10;99.90
47168;DHT22;32931;47.778;17.806;2024-03-06T05:09:03;6.10;99.90
47168;DHT22;32931;47.778;17.806;2024-03-06T05:11:31;6.10;99.90
47168;DHT22;32931;47.778;17.806;2024-03-06T05:14:01;6.10;99.90
47168;DHT22;32931;47.778;17.806;2024-03-06T05:16:28;6.00;99.90
47168;DHT22;32931;47.778;17.806;2024-03-06T05:18:55;6.00;99.90
47168;DHT22;32931;47.778;17.806;2024-03-06T05:21:21;6.00;99.90
47168;DHT22;32931;47.778;17.806;2024-03-06T05:23:50;6.00;99.90
47168;DHT22;32931;47.778;17.806;2024-03-06T05:26:16;6.00;99.90
47168;DHT22;32931;47.778;17.806;2024-03-06T05:28:42;6.00;99.90
47168;DHT22;32931;47.778;17.806;2024-03-06T05:31:18;6.00;99.90
47168;DHT22;32931;47.778;17.806;2024-03-06T05:33:47;6.00;99.90
47168;DHT22;32931;47.778;17.806;2024-03-06T05:36:13;6.00;99.90
47168;DHT22;32931;47.778;17.806;2024-03-06T05:38:39;6.00;99.90
47168;DHT22;32931;47.778;17.806;2024-03-06T05:41:05;6.00;99.90
47168;DHT22;32931;47.778;17.806;2024-03-06T05:43:31;6.00;99.90
47168;DHT22;32931;47.778;17.806;2024-03-06T05:45:57;6.00;99.90
47168;DHT22;32931;47.778;17.806;2024-03-06T05:48:23;6.00;99.90
47168;DHT22;32931;47.778;17.806;2024-03-06T05:50:50;6.00;99.90
47168;DHT22;32931;47.778;17.806;2024-03-06T05:53:16;6.00;99.90
47168;DHT22;32931;47.778;17.806;2024-03-06T05:55:42;6.00;99.90
47168;DHT22;32931;47.778;17.806;2024-03-06T05:58:08;6.00;99.90
47168;DHT22;32931;47.778;17.806;2024-03-06T06:00:34;6.10;99.90
47168;DHT22;32931;47.778;17.806;2024-03-06T06:03:00;6.10;99.90
47168;DHT22;32931;47.778;17.806;2024-03-06T06:05:26;6.10;99.90
47168;DHT22;32931;47.778;17.806;2024-03-06T06:07:52;6.10;99.90
47168;DHT22;32931;47.778;17.806;2024-03-06T06:10:19;6.10;99.90
47168;DHT22;32931;47.778;17.806;2024-03-06T06:12:45;6.20;99.90
47168;DHT22;32931;47.778;17.806;2024-03-06T06:15:11;6.20;99.90
47168;DHT22;32931;47.778;17.806;2024-03-06T06:17:38;6.20;99.90
47168;DHT22;32931;47.778;17.806;2024-03-06T06:20:07;6.30;99.90
47168;DHT22;32931;47.778;17.806;2024-03-06T06:22:38;6.30;99.90
47168;DHT22;32931;47.778;17.806;2024-03-06T06:25:04;6.30;99.90
47168;DHT22;32931;47.778;17.806;2024-03-06T06:27:31;6.40;99.90
47168;DHT22;32931;47.778;17.806;2024-03-06T06:29:57;6.40;99.90
47168;DHT22;32931;47.778;17.806;2024-03-06T06:32:23;6.50;99.90
47168;DHT22;32931;47.778;17.806;2024-03-06T06:34:49;6.50;99.90
47168;DHT22;32931;47.778;17.806;2024-03-06T06:37:16;6.60;99.90
47168;DHT22;32931;47.778;17.806;2024-03-06T06:39:42;6.60;99.90
47168;DHT22;32931;47.778;17.806;2024-03-06T06:42:08;6.70;99.90
47168;DHT22;32931;47.778;17.806;2024-03-06T06:44:36;6.70;99.90
47168;DHT22;32931;47.778;17.806;2024-03-06T06:47:02;6.70;99.90
47168;DHT22;32931;47.778;17.806;2024-03-06T06:49:29;6.80;99.90
47168;DHT22;32931;47.778;17.806;2024-03-06T06:51:55;6.90;99.90
47168;DHT22;32931;47.778;17.806;2024-03-06T06:54:21;7.00;99.90
47168;DHT22;32931;47.778;17.806;2024-03-06T06:56:47;7.00;99.90
47168;DHT22;32931;47.778;17.806;2024-03-06T06:59:13;7.10;99.90
47168;DHT22;32931;47.778;17.806;2024-03-06T07:01:39;7.10;99.90
47168;DHT22;32931;47.778;17.806;2024-03-06T07:04:06;7.20;99.90
47168;DHT22;32931;47.778;17.806;2024-03-06T07:06:33;7.30;99.90
47168;DHT22;32931;47.778;17.806;2024-03-06T07:08:59;7.30;99.90
47168;DHT22;32931;47.778;17.806;2024-03-06T07:11:25;7.40;99.90
47168;DHT22;32931;47.778;17.806;2024-03-06T07:13:51;7.40;99.90
47168;DHT22;32931;47.778;17.806;2024-03-06T07:16:17;7.50;99.90
47168;DHT22;32931;47.778;17.806;2024-03-06T07:18:43;7.50;99.90
47168;DHT22;32931;47.778;17.806;2024-03-06T07:21:09;7.60;99.90
47168;DHT22;32931;47.778;17.806;2024-03-06T07:23:35;7.70;99.90
47168;DHT22;32931;47.778;17.806;2024-03-06T07:26:01;7.80;99.90
47168;DHT22;32931;47.778;17.806;2024-03-06T07:28:28;7.90;99.90
47168;DHT22;32931;47.778;17.806;2024-03-06T07:30:54;8.00;99.90
47168;DHT22;32931;47.778;17.806;2024-03-06T07:33:20;8.00;99.90
47168;DHT22;32931;47.778;17.806;2024-03-06T07:35:46;8.10;99.90
47168;DHT22;32931;47.778;17.806;2024-03-06T07:38:12;8.20;99.90
47168;DHT22;32931;47.778;17.806;2024-03-06T07:40:38;8.30;99.90
47168;DHT22;32931;47.778;17.806;2024-03-06T07:43:04;8.40;99.90
47168;DHT22;32931;47.778;17.806;2024-03-06T07:45:30;8.40;99.90
47168;DHT22;32931;47.778;17.806;2024-03-06T07:47:57;8.50;99.90
47168;DHT22;32931;47.778;17.806;2024-03-06T07:50:23;8.50;99.90
47168;DHT22;32931;47.778;17.806;2024-03-06T07:52:49;8.60;99.90
47168;DHT22;32931;47.778;17.806;2024-03-06T07:55:15;8.60;99.90
47168;DHT22;32931;47.778;17.806;2024-03-06T07:57:41;8.70;99.90
47168;DHT22;32931;47.778;17.806;2024-03-06T08:00:08;8.80;99.90
47168;DHT22;32931;47.778;17.806;2024-03-06T08:02:40;8.80;99.90
47168;DHT22;32931;47.778;17.806;2024-03-06T08:05:12;8.90;99.90
47168;DHT22;32931;47.778;17.806;2024-03-06T08:07:39;8.90;99.90
47168;DHT22;32931;47.778;17.806;2024-03-06T08:10:11;9.00;99.90
47168;DHT22;32931;47.778;17.806;2024-03-06T08:12:44;9.10;99.90
47168;DHT22;32931;47.778;17.806;2024-03-06T08:15:11;9.20;99.90
47168;DHT22;32931;47.778;17.806;2024-03-06T08:17:39;9.20;99.90
47168;DHT22;32931;47.778;17.806;2024-03-06T08:20:08;9.30;99.90
47168;DHT22;32931;47.778;17.806;2024-03-06T08:22:36;9.30;99.90
47168;DHT22;32931;47.778;17.806;2024-03-06T08:25:09;9.40;99.90
47168;DHT22;32931;47.778;17.806;2024-03-06T08:27:38;9.50;99.90
47168;DHT22;32931;47.778;17.806;2024-03-06T08:30:05;9.50;99.90
47168;DHT22;32931;47.778;17.806;2024-03-06T08:32:32;9.50;99.90
47168;DHT22;32931;47.778;17.806;2024-03-06T08:35:05;9.60;99.90
47168;DHT22;32931;47.778;17.806;2024-03-06T08:37:32;9.70;99.90
47168;DHT22;32931;47.778;17.806;2024-03-06T08:40:00;9.80;99.90
47168;DHT22;32931;47.778;17.806;2024-03-06T08:42:27;9.80;99.90
47168;DHT22;32931;47.778;17.806;2024-03-06T08:44:53;9.90;99.90
47168;DHT22;32931;47.778;17.806;2024-03-06T08:47:19;10.00;99.90
47168;DHT22;32931;47.778;17.806;2024-03-06T08:49:45;10.10;99.90
47168;DHT22;32931;47.778;17.806;2024-03-06T08:52:12;10.20;99.90
47168;DHT22;32931;47.778;17.806;2024-03-06T08:54:40;10.20;99.90
47168;DHT22;32931;47.778;17.806;2024-03-06T08:57:07;10.30;99.90
47168;DHT22;32931;47.778;17.806;2024-03-06T08:59:35;10.30;99.90
47168;DHT22;32931;47.778;17.806;2024-03-06T09:02:15;10.40;99.90
47168;DHT22;32931;47.778;17.806;2024-03-06T09:04:42;10.50;99.90
47168;DHT22;32931;47.778;17.806;2024-03-06T09:07:09;10.50;99.90
47168;DHT22;32931;47.778;17.806;2024-03-06T09:09:36;10.60;99.90
47168;DHT22;32931;47.778;17.806;2024-03-06T09:12:06;10.70;99.90
47168;DHT22;32931;47.778;17.806;2024-03-06T09:14:33;10.80;99.90
47168;DHT22;32931;47.778;17.806;2024-03-06T09:17:00;10.90;99.90
47168;DHT22;32931;47.778;17.806;2024-03-06T09:19:26;10.90;99.90
47168;DHT22;32931;47.778;17.806;2024-03-06T09:21:52;11.00;99.90
47168;DHT22;32931;47.778;17.806;2024-03-06T09:24:21;11.00;99.90
47168;DHT22;32931;47.778;17.806;2024-03-06T09:26:49;11.10;99.90
47168;DHT22;32931;47.778;17.806;2024-03-06T09:29:15;11.30;99.90
47168;DHT22;32931;47.778;17.806;2024-03-06T09:31:42;11.40;99.90
47168;DHT22;32931;47.778;17.806;2024-03-06T09:34:08;11.60;99.90
47168;DHT22;32931;47.778;17.806;2024-03-06T09:36:40;11.80;99.90
47168;DHT22;32931;47.778;17.806;2024-03-06T09:39:09;11.90;99.90
47168;DHT22;32931;47.778;17.806;2024-03-06T09:41:35;12.10;99.90
47168;DHT22;32931;47.778;17.806;2024-03-06T09:44:02;12.20;99.90
47168;DHT22;32931;47.778;17.806;2024-03-06T09:46:29;12.40;99.90
47168;DHT22;32931;47.778;17.806;2024-03-06T09:48:56;12.50;99.90
47168;DHT22;32931;47.778;17.806;2024-03-06T09:51:22;12.60;99.90
47168;DHT22;32931;47.778;17.806;2024-03-06T09:53:48;12.60;99.90
47168;DHT22;32931;47.778;17.806;2024-03-06T09:56:18;12.60;99.90
47168;DHT22;32931;47.778;17.806;2024-03-06T09:58:45;12.70;99.90
47168;DHT22;32931;47.778;17.806;2024-03-06T10:01:14;12.80;99.90
47168;DHT22;32931;47.778;17.806;2024-03-06T10:03:40;12.90;99.90
47168;DHT22;32931;47.778;17.806;2024-03-06T10:06:07;13.00;99.90
47168;DHT22;32931;47.778;17.806;2024-03-06T10:08:34;13.10;99.90
47168;DHT22;32931;47.778;17.806;2024-03-06T10:11:00;13.10;99.90
47168;DHT22;32931;47.778;17.806;2024-03-06T10:13:27;13.20;99.90
47168;DHT22;32931;47.778;17.806;2024-03-06T10:16:00;13.20;99.90
47168;DHT22;32931;47.778;17.806;2024-03-06T10:18:32;13.20;99.90
47168;DHT22;32931;47.778;17.806;2024-03-06T10:20:59;13.30;99.90
47168;DHT22;32931;47.778;17.806;2024-03-06T10:23:26;13.40;99.90
47168;DHT22;32931;47.778;17.806;2024-03-06T10:25:55;13.50;99.90
47168;DHT22;32931;47.778;17.806;2024-03-06T10:28:23;13.50;99.90
47168;DHT22;32931;47.778;17.806;2024-03-06T10:30:50;13.50;99.90
47168;DHT22;32931;47.778;17.806;2024-03-06T10:33:18;13.60;99.90
47168;DHT22;32931;47.778;17.806;2024-03-06T10:35:48;13.40;99.90
47168;DHT22;32931;47.778;17.806;2024-03-06T10:38:14;13.40;99.90
47168;DHT22;32931;47.778;17.806;2024-03-06T10:40:43;13.50;99.90
47168;DHT22;32931;47.778;17.806;2024-03-06T10:43:09;13.50;99.00
47168;DHT22;32931;47.778;17.806;2024-03-06T10:45:50;13.50;98.90
47168;DHT22;32931;47.778;17.806;2024-03-06T10:48:19;13.60;97.80
47168;DHT22;32931;47.778;17.806;2024-03-06T10:50:47;13.60;98.90
47168;DHT22;32931;47.778;17.806;2024-03-06T10:53:16;13.60;98.90
47168;DHT22;32931;47.778;17.806;2024-03-06T10:55:43;13.60;99.00
47168;DHT22;32931;47.778;17.806;2024-03-06T10:58:13;13.50;98.80
47168;DHT22;32931;47.778;17.806;2024-03-06T11:00:41;13.50;98.80
47168;DHT22;32931;47.778;17.806;2024-03-06T11:03:09;13.60;99.00
47168;DHT22;32931;47.778;17.806;2024-03-06T11:05:38;13.70;99.00
47168;DHT22;32931;47.778;17.806;2024-03-06T11:08:10;13.80;98.80
47168;DHT22;32931;47.778;17.806;2024-03-06T11:10:38;14.00;98.80
47168;DHT22;32931;47.778;17.806;2024-03-06T11:13:21;14.00;98.60
47168;DHT22;32931;47.778;17.806;2024-03-06T11:15:50;14.20;98.20
47168;DHT22;32931;47.778;17.806;2024-03-06T11:23:27;14.30;97.40
47168;DHT22;32931;47.778;17.806;2024-03-06T11:28:21;14.60;97.90
47168;DHT22;32931;47.778;17.806;2024-03-06T11:31:08;14.60;97.50
47168;DHT22;32931;47.778;17.806;2024-03-06T11:33:45;14.70;94.60
47168;DHT22;32931;47.778;17.806;2024-03-06T11:36:27;14.70;96.70
47168;DHT22;32931;47.778;17.806;2024-03-06T11:39:02;14.80;95.70
47168;DHT22;32931;47.778;17.806;2024-03-06T11:41:31;14.80;95.60
47168;DHT22;32931;47.778;17.806;2024-03-06T11:44:00;14.90;95.90
47168;DHT22;32931;47.778;17.806;2024-03-06T11:46:45;15.00;96.30
47168;DHT22;32931;47.778;17.806;2024-03-06T11:51:41;15.10;95.10
47168;DHT22;32931;47.778;17.806;2024-03-06T11:54:07;15.00;95.30
47168;DHT22;32931;47.778;17.806;2024-03-06T11:56:33;15.00;95.30
47168;DHT22;32931;47.778;17.806;2024-03-06T11:58:59;14.90;95.00
47168;DHT22;32931;47.778;17.806;2024-03-06T12:01:26;14.80;95.00
47168;DHT22;32931;47.778;17.806;2024-03-06T12:03:52;14.90;95.00
47168;DHT22;32931;47.778;17.806;2024-03-06T12:06:18;14.80;94.40
47168;DHT22;32931;47.778;17.806;2024-03-06T12:08:45;14.80;94.80
47168;DHT22;32931;47.778;17.806;2024-03-06T12:11:11;14.80;94.40
47168;DHT22;32931;47.778;17.806;2024-03-06T12:13:37;14.90;94.40
47168;DHT22;32931;47.778;17.806;2024-03-06T12:16:06;14.80;93.90
47168;DHT22;32931;47.778;17.806;2024-03-06T12:18:35;14.70;93.70
47168;DHT22;32931;47.778;17.806;2024-03-06T12:21:02;14.70;93.50
47168;DHT22;32931;47.778;17.806;2024-03-06T12:23:30;14.70;93.60
47168;DHT22;32931;47.778;17.806;2024-03-06T12:26:22;14.80;93.80
47168;DHT22;32931;47.778;17.806;2024-03-06T12:28:48;14.90;92.20
47168;DHT22;32931;47.778;17.806;2024-03-06T12:31:15;14.90;93.10
47168;DHT22;32931;47.778;17.806;2024-03-06T12:33:41;15.00;93.20
47168;DHT22;32931;47.778;17.806;2024-03-06T12:36:08;15.20;93.10
47168;DHT22;32931;47.778;17.806;2024-03-06T12:38:37;15.30;92.80
47168;DHT22;32931;47.778;17.806;2024-03-06T12:41:03;15.50;92.40
47168;DHT22;32931;47.778;17.806;2024-03-06T12:43:30;15.60;91.90
47168;DHT22;32931;47.778;17.806;2024-03-06T12:45:56;15.70;91.70
47168;DHT22;32931;47.778;17.806;2024-03-06T12:48:23;15.80;91.10
47168;DHT22;32931;47.778;17.806;2024-03-06T12:50:51;15.90;90.60
47168;DHT22;32931;47.778;17.806;2024-03-06T12:53:21;16.00;90.10
47168;DHT22;32931;47.778;17.806;2024-03-06T12:55:48;16.10;89.00
47168;DHT22;32931;47.778;17.806;2024-03-06T12:58:14;16.20;88.90
47168;DHT22;32931;47.778;17.806;2024-03-06T13:00:41;16.30;87.80
47168;DHT22;32931;47.778;17.806;2024-03-06T13:03:07;16.50;87.30
47168;DHT22;32931;47.778;17.806;2024-03-06T13:05:33;16.60;86.40
47168;DHT22;32931;47.778;17.806;2024-03-06T13:07:59;16.70;86.50
47168;DHT22;32931;47.778;17.806;2024-03-06T13:10:26;16.70;86.30
47168;DHT22;32931;47.778;17.806;2024-03-06T13:12:52;16.90;87.80
47168;DHT22;32931;47.778;17.806;2024-03-06T13:15:18;17.00;87.90
47168;DHT22;32931;47.778;17.806;2024-03-06T13:17:44;17.00;87.90
47168;DHT22;32931;47.778;17.806;2024-03-06T13:20:10;17.10;86.30
47168;DHT22;32931;47.778;17.806;2024-03-06T13:22:40;17.20;88.00
47168;DHT22;32931;47.778;17.806;2024-03-06T13:25:06;17.30;87.30
47168;DHT22;32931;47.778;17.806;2024-03-06T13:27:32;17.30;85.90
47168;DHT22;32931;47.778;17.806;2024-03-06T13:29:59;17.10;84.60
47168;DHT22;32931;47.778;17.806;2024-03-06T13:32:25;17.10;83.70
47168;DHT22;32931;47.778;17.806;2024-03-06T13:34:51;17.20;84.40
47168;DHT22;32931;47.778;17.806;2024-03-06T13:37:17;17.40;84.20
47168;DHT22;32931;47.778;17.806;2024-03-06T13:39:44;17.50;83.50
47168;DHT22;32931;47.778;17.806;2024-03-06T13:42:10;17.60;83.00
47168;DHT22;32931;47.778;17.806;2024-03-06T13:44:36;17.90;83.00
47168;DHT22;32931;47.778;17.806;2024-03-06T13:47:03;17.80;82.00
47168;DHT22;32931;47.778;17.806;2024-03-06T13:49:40;17.80;81.10
47168;DHT22;32931;47.778;17.806;2024-03-06T13:52:07;17.80;79.40
47168;DHT22;32931;47.778;17.806;2024-03-06T13:54:38;17.80;80.40
47168;DHT22;32931;47.778;17.806;2024-03-06T13:57:06;17.80;80.10
47168;DHT22;32931;47.778;17.806;2024-03-06T13:59:32;17.70;80.00
47168;DHT22;32931;47.778;17.806;2024-03-06T14:02:00;17.70;79.70
47168;DHT22;32931;47.778;17.806;2024-03-06T14:04:26;17.60;79.50
47168;DHT22;32931;47.778;17.806;2024-03-06T14:06:52;17.70;79.20
47168;DHT22;32931;47.778;17.806;2024-03-06T14:09:18;17.70;79.40
47168;DHT22;32931;47.778;17.806;2024-03-06T14:11:45;17.80;78.00
47168;DHT22;32931;47.778;17.806;2024-03-06T14:14:11;17.80;77.70
47168;DHT22;32931;47.778;17.806;2024-03-06T14:16:39;18.00;77.00
47168;DHT22;32931;47.778;17.806;2024-03-06T14:19:06;18.20;77.30
47168;DHT22;32931;47.778;17.806;2024-03-06T14:21:32;18.30;76.40
47168;DHT22;32931;47.778;17.806;2024-03-06T14:23:59;18.20;76.80
47168;DHT22;32931;47.778;17.806;2024-03-06T14:26:25;18.20;76.70
47168;DHT22;32931;47.778;17.806;2024-03-06T14:28:53;18.30;76.80
47168;DHT22;32931;47.778;17.806;2024-03-06T14:31:19;18.30;76.00
47168;DHT22;32931;47.778;17.806;2024-03-06T14:33:45;18.20;75.50
47168;DHT22;32931;47.778;17.806;2024-03-06T14:36:12;18.20;75.90
47168;DHT22;32931;47.778;17.806;2024-03-06T14:38:39;18.40;75.20
47168;DHT22;32931;47.778;17.806;2024-03-06T14:41:05;18.20;75.20
47168;DHT22;32931;47.778;17.806;2024-03-06T14:43:32;18.10;74.90
47168;DHT22;32931;47.778;17.806;2024-03-06T14:46:00;17.90;74.80
47168;DHT22;32931;47.778;17.806;2024-03-06T14:48:26;17.60;75.00
47168;DHT22;32931;47.778;17.806;2024-03-06T14:50:52;17.30;74.80
47168;DHT22;32931;47.778;17.806;2024-03-06T14:53:19;17.20;75.00
47168;DHT22;32931;47.778;17.806;2024-03-06T14:55:45;17.10;75.30
47168;DHT22;32931;47.778;17.806;2024-03-06T14:58:11;17.00;75.40
47168;DHT22;32931;47.778;17.806;2024-03-06T15:00:38;16.80;75.20
47168;DHT22;32931;47.778;17.806;2024-03-06T15:03:04;16.70;75.80
47168;DHT22;32931;47.778;17.806;2024-03-06T15:05:30;16.60;76.30
47168;DHT22;32931;47.778;17.806;2024-03-06T15:07:57;16.60;76.20
47168;DHT22;32931;47.778;17.806;2024-03-06T15:10:24;16.50;76.40
47168;DHT22;32931;47.778;17.806;2024-03-06T15:12:50;16.40;76.90
47168;DHT22;32931;47.778;17.806;2024-03-06T15:15:16;16.50;77.60
47168;DHT22;32931;47.778;17.806;2024-03-06T15:17:42;16.60;77.30
47168;DHT22;32931;47.778;17.806;2024-03-06T15:20:10;16.50;77.20
47168;DHT22;32931;47.778;17.806;2024-03-06T15:22:37;16.50;77.20
47168;DHT22;32931;47.778;17.806;2024-03-06T15:25:08;16.40;77.50
47168;DHT22;32931;47.778;17.806;2024-03-06T15:27:35;16.30;78.00
47168;DHT22;32931;47.778;17.806;2024-03-06T15:30:03;16.30;77.20
47168;DHT22;32931;47.778;17.806;2024-03-06T15:32:29;16.20;77.30
47168;DHT22;32931;47.778;17.806;2024-03-06T15:34:55;16.20;77.40